CA-0006 weather

CLOSED RCAF Station Carberry
Carberry, Manitoba, Canada

Public forecast

Using degrees Celsius for public forecast. Weather courtesy of forecast.io.

Closest aviation weather report (METAR) to RCAF Station Carberry

Closest report is Brandon Municipal Airport, 21.6 nm (40.0 km) W. Retrieved 2019/12/15 12:00 UTC (55 minutes ago):

CYBR 151200Z 30004KT 15SM -SN BKN024 M27/M31 A2980 RMK SC5 SLP148

Closest aviation forecast (TAF) to RCAF Station Carberry

Closest forecast is Brandon Municipal Airport, 21.6 nm (40.0 km) W. Retrieved 2019/12/15 12:42 UTC (13 minutes ago):

TAF TAF CYBR 151140Z 1512/1524 VRB03KT P6SM FEW020 FEW100 TEMPO 1512/1513 BKN020 FM151300 25005KT P6SM -SN FEW008 BKN020 TEMPO 1513/1518 P6SM NSW SCT020 BECMG 1514/1516 26010KT FM151800 27015KT P6SM BKN025 TEMPO 1518/1524 P6SM -SN BKN020 BECMG 1518/1520 30015KT RMK NXT FCST BY 151800Z